createdAt,value
2023-01-17T00:00:33.403Z,1.65
2023-01-17T00:02:59.975Z,1.23
2023-01-17T00:11:54.248Z,0.82
2023-01-17T00:14:20.773Z,0.57
2023-01-17T00:16:47.361Z,0.75
2023-01-17T00:19:38.878Z,1.23
2023-01-17T00:22:38.538Z,0.65
2023-01-17T00:25:24.041Z,1.20
2023-01-17T00:27:50.597Z,1.92
2023-01-17T00:30:17.126Z,1.08
2023-01-17T00:32:43.592Z,1.50
2023-01-17T00:35:10.027Z,0.30
2023-01-17T00:37:36.496Z,1.25
2023-01-17T00:40:03.063Z,1.48
2023-01-17T00:42:29.524Z,1.60
2023-01-17T00:45:14.573Z,0.55
2023-01-17T00:48:00.045Z,0.68
2023-01-17T00:50:45.020Z,1.15
2023-01-17T00:53:30.373Z,0.98
2023-01-17T00:56:19.819Z,1.25
2023-01-17T01:14:15.144Z,0.35
2023-01-17T01:17:00.376Z,0.40
2023-01-17T01:19:45.938Z,0.65
2023-01-17T01:22:31.427Z,1.48
2023-01-17T01:32:44.469Z,0.52
2023-01-17T01:35:11.072Z,1.13
2023-01-17T01:37:37.595Z,1.13
2023-01-17T01:40:04.730Z,0.63
2023-01-17T01:42:31.286Z,1.20
2023-01-17T01:44:57.764Z,0.80
2023-01-17T01:47:30.487Z,0.82
2023-01-17T01:49:59.160Z,0.30
2023-01-17T01:52:29.828Z,0.32
2023-01-17T01:57:32.299Z,0.35
2023-01-17T02:00:04.225Z,0.77
2023-01-17T02:02:31.817Z,0.82
2023-01-17T02:04:59.821Z,0.50
2023-01-17T02:07:33.246Z,1.02
2023-01-17T02:10:00.764Z,0.60
2023-01-17T02:12:27.606Z,2.10
2023-01-17T02:14:54.113Z,0.60
2023-01-17T02:17:39.612Z,1.17
2023-01-17T02:20:27.685Z,0.47
2023-01-17T02:23:06.557Z,0.45
2023-01-17T02:25:45.155Z,0.82
2023-01-17T02:28:33.740Z,0.35
2023-01-17T02:31:11.435Z,0.57
2023-01-17T02:34:06.300Z,0.70
2023-01-17T02:36:39.477Z,0.43
2023-01-17T02:39:17.220Z,0.30
2023-01-17T02:41:48.996Z,0.70
2023-01-17T02:44:18.810Z,0.30
2023-01-17T02:46:56.363Z,0.90
2023-01-17T02:49:28.359Z,1.38
2023-01-17T02:52:08.511Z,0.70
2023-01-17T02:54:47.765Z,1.50
2023-01-17T02:57:49.503Z,0.73
2023-01-17T03:00:27.452Z,1.02
2023-01-17T03:03:09.295Z,0.63
2023-01-17T03:05:48.979Z,0.40
2023-01-17T03:08:16.825Z,0.50
2023-01-17T03:10:44.485Z,1.00
2023-01-17T03:13:11.117Z,0.40
2023-01-17T03:15:39.983Z,0.80
2023-01-17T03:18:14.078Z,0.70
2023-01-17T03:20:40.796Z,1.38
2023-01-17T03:23:07.564Z,0.38
2023-01-17T03:25:34.237Z,0.90
2023-01-17T03:28:00.758Z,0.98
2023-01-17T03:30:27.436Z,0.70
2023-01-17T03:32:54.033Z,0.40
2023-01-17T03:35:20.625Z,0.98
2023-01-17T03:37:47.455Z,1.40
2023-01-17T03:40:14.205Z,1.15
2023-01-17T03:42:40.929Z,0.75
2023-01-17T03:45:08.137Z,0.77
2023-01-17T03:47:35.985Z,0.40
2023-01-17T03:50:03.687Z,0.35
2023-01-17T03:52:30.452Z,1.80
2023-01-17T03:54:57.261Z,0.90
2023-01-17T03:57:23.831Z,0.63
2023-01-17T03:59:50.417Z,0.40
2023-01-17T04:02:17.467Z,1.65
2023-01-17T04:04:44.024Z,0.40
2023-01-17T04:07:10.613Z,0.43
2023-01-17T04:09:37.192Z,1.63
2023-01-17T04:12:04.036Z,0.70
2023-01-17T04:14:30.685Z,0.40
2023-01-17T04:16:57.424Z,0.90
2023-01-17T04:19:24.115Z,0.40
2023-01-17T04:21:50.813Z,0.60
2023-01-17T04:24:18.113Z,0.65
2023-01-17T04:26:44.833Z,0.95
2023-01-17T04:29:11.557Z,1.00
2023-01-17T04:31:38.108Z,0.77
2023-01-17T04:34:04.599Z,1.70
2023-01-17T04:36:31.186Z,0.35
2023-01-17T04:38:57.677Z,1.02
2023-01-17T04:41:24.232Z,0.73
2023-01-17T04:43:50.975Z,0.47
2023-01-17T04:46:17.667Z,1.17
2023-01-17T04:49:27.876Z,1.35
2023-01-17T04:51:54.324Z,0.85
2023-01-17T04:54:20.779Z,0.90
2023-01-17T04:56:47.250Z,0.45
2023-01-17T04:59:13.805Z,0.80
2023-01-17T05:01:40.413Z,0.68
2023-01-17T05:04:07.002Z,1.23
2023-01-17T05:06:33.641Z,1.02
2023-01-17T05:09:00.185Z,0.63
2023-01-17T05:11:26.845Z,0.45
2023-01-17T05:13:53.321Z,0.38
2023-01-17T05:16:19.805Z,0.90
2023-01-17T05:18:46.437Z,1.88
2023-01-17T05:21:12.916Z,0.30
2023-01-17T05:23:40.596Z,1.38
2023-01-17T05:26:07.109Z,1.40
2023-01-17T05:28:34.005Z,1.08
2023-01-17T05:31:00.672Z,0.73
2023-01-17T05:33:27.238Z,0.98
2023-01-17T05:35:53.751Z,0.50
2023-01-17T05:38:20.397Z,1.15
2023-01-17T05:40:46.870Z,0.50
2023-01-17T05:43:13.450Z,1.35
2023-01-17T05:45:39.928Z,0.75
2023-01-17T05:48:06.745Z,1.55
2023-01-17T05:50:38.087Z,0.43
2023-01-17T05:53:08.416Z,0.40
2023-01-17T05:55:36.210Z,1.30
2023-01-17T05:58:03.846Z,1.25
2023-01-17T06:00:31.800Z,0.85
2023-01-17T06:02:59.996Z,1.00
2023-01-17T06:05:28.367Z,0.60
2023-01-17T06:07:54.956Z,0.85
2023-01-17T06:10:22.261Z,1.23
2023-01-17T06:12:49.589Z,2.83
2023-01-17T06:15:18.122Z,1.00
2023-01-17T06:17:45.062Z,0.82
2023-01-17T06:20:13.555Z,0.60
2023-01-17T06:22:40.138Z,1.02
2023-01-17T06:25:07.423Z,0.98
2023-01-17T06:27:34.290Z,0.55
2023-01-17T06:30:00.822Z,0.95
2023-01-17T06:32:27.371Z,0.65
2023-01-17T06:34:54.057Z,0.30
2023-01-17T06:37:20.653Z,0.90
2023-01-17T06:39:47.298Z,0.80
2023-01-17T06:42:13.764Z,1.00
2023-01-17T06:44:40.353Z,0.40
2023-01-17T06:47:07.063Z,0.38
2023-01-17T06:49:33.612Z,0.60
2023-01-17T06:52:00.119Z,0.93
2023-01-17T06:54:27.199Z,0.73
2023-01-17T06:56:54.391Z,0.38
2023-01-17T06:59:21.324Z,0.40
2023-01-17T07:01:47.862Z,0.43
2023-01-17T07:04:14.415Z,0.40
2023-01-17T07:06:40.891Z,0.50
2023-01-17T07:09:07.711Z,0.30
2023-01-17T07:11:34.220Z,0.50
2023-01-17T07:14:00.745Z,0.90
2023-01-17T07:16:27.336Z,0.75
2023-01-17T07:18:54.814Z,0.98
2023-01-17T07:21:21.402Z,0.82
2023-01-17T07:23:48.727Z,0.95
2023-01-17T07:26:17.258Z,0.20
2023-01-17T07:28:44.097Z,1.25
2023-01-17T07:31:10.712Z,0.90
2023-01-17T07:33:37.752Z,0.57
2023-01-17T07:36:08.483Z,0.55
2023-01-17T07:38:35.378Z,0.38
2023-01-17T07:41:02.182Z,0.50
2023-01-17T07:43:28.731Z,0.45
2023-01-17T07:45:55.680Z,1.40
2023-01-17T07:48:24.452Z,1.60
2023-01-17T07:50:55.500Z,0.40
2023-01-17T07:53:27.394Z,1.02
2023-01-17T07:55:54.490Z,0.77
2023-01-17T07:58:21.967Z,0.22
2023-01-17T08:00:48.573Z,0.55
2023-01-17T08:03:17.593Z,0.30
2023-01-17T08:05:53.596Z,0.47
2023-01-17T08:08:20.469Z,0.30
2023-01-17T08:10:47.307Z,0.40
2023-01-17T08:13:13.917Z,1.23
2023-01-17T08:15:40.739Z,1.02
2023-01-17T08:18:07.223Z,0.52
2023-01-17T08:20:33.775Z,1.17
2023-01-17T08:23:00.408Z,0.55
2023-01-17T08:25:27.484Z,0.60
2023-01-17T08:27:57.899Z,1.00
2023-01-17T08:30:25.822Z,0.70
2023-01-17T08:32:52.536Z,1.10
2023-01-17T08:35:22.448Z,0.82
2023-01-17T08:37:53.338Z,1.48
2023-01-17T08:40:20.101Z,0.98
2023-01-17T08:42:57.613Z,0.47
2023-01-17T08:45:24.417Z,0.98
2023-01-17T08:47:51.439Z,0.40
2023-01-17T08:50:20.691Z,0.63
2023-01-17T08:52:51.006Z,0.85
2023-01-17T08:55:17.834Z,0.50
2023-01-17T08:57:44.519Z,1.05
2023-01-17T09:00:11.790Z,0.50
2023-01-17T09:02:38.312Z,0.35
2023-01-17T09:05:05.699Z,0.65
2023-01-17T09:07:32.525Z,0.80
2023-01-17T09:09:59.068Z,0.38
2023-01-17T09:12:25.868Z,1.30
2023-01-17T09:14:52.511Z,1.02
2023-01-17T09:17:18.997Z,0.98
2023-01-17T09:19:47.612Z,0.60
2023-01-17T09:22:15.075Z,0.75
2023-01-17T09:24:42.163Z,0.90
2023-01-17T09:27:08.904Z,0.68
2023-01-17T09:29:35.418Z,0.75
2023-01-17T09:32:02.156Z,1.00
2023-01-17T09:34:28.762Z,0.40
2023-01-17T09:36:56.947Z,0.88
2023-01-17T09:39:23.502Z,0.63
2023-01-17T09:42:17.333Z,0.88
2023-01-17T09:44:54.597Z,2.05
2023-01-17T09:47:51.127Z,0.80
2023-01-17T09:50:29.650Z,0.55
2023-01-17T09:53:01.354Z,0.50
2023-01-17T09:55:36.913Z,2.00
2023-01-17T09:58:10.622Z,2.20
2023-01-17T10:00:55.288Z,1.52
2023-01-17T10:03:40.265Z,1.70
2023-01-17T10:06:15.583Z,4.25
2023-01-17T10:08:48.059Z,2.65
2023-01-17T10:11:20.533Z,5.50
2023-01-17T10:14:25.124Z,3.40
2023-01-17T10:16:51.582Z,4.07
2023-01-17T10:19:55.897Z,2.75
2023-01-17T10:22:31.669Z,3.45
2023-01-17T10:25:07.243Z,1.95
2023-01-17T10:27:39.181Z,3.53
2023-01-17T10:30:21.265Z,3.50
2023-01-17T10:32:49.661Z,7.72
2023-01-17T10:35:28.645Z,4.35
2023-01-17T10:37:58.379Z,4.32
2023-01-17T10:40:45.394Z,5.07
2023-01-17T10:43:22.569Z,6.00
2023-01-17T10:45:54.155Z,5.60
2023-01-17T10:48:41.492Z,5.93
2023-01-17T10:51:17.082Z,8.60
2023-01-17T10:54:17.660Z,4.50
2023-01-17T10:56:44.559Z,4.75
2023-01-17T10:59:23.432Z,6.20
2023-01-17T11:01:51.475Z,5.03
2023-01-17T11:04:20.781Z,2.63
2023-01-17T11:07:08.216Z,4.38
2023-01-17T11:09:49.824Z,3.38
2023-01-17T11:12:41.535Z,2.42
2023-01-17T11:15:10.715Z,1.70
2023-01-17T11:17:42.283Z,2.30
2023-01-17T11:20:28.283Z,1.85
2023-01-17T11:23:29.455Z,3.17
2023-01-17T11:26:02.720Z,2.88
2023-01-17T11:28:35.125Z,2.38
2023-01-17T11:31:03.717Z,2.33
2023-01-17T11:33:54.047Z,1.77
2023-01-17T11:36:28.893Z,2.05
2023-01-17T11:39:27.637Z,3.95
2023-01-17T11:41:54.569Z,3.10
2023-01-17T11:44:23.748Z,2.40
2023-01-17T11:47:13.505Z,3.38
2023-01-17T11:49:42.197Z,2.40
2023-01-17T11:52:18.086Z,2.08
2023-01-17T11:54:47.002Z,2.28
2023-01-17T11:57:35.064Z,1.25
2023-01-17T12:00:24.093Z,3.30
2023-01-17T12:03:30.587Z,5.05
2023-01-17T12:06:06.918Z,2.33
2023-01-17T12:09:22.922Z,0.95
2023-01-17T12:12:26.293Z,1.33
2023-01-17T12:14:52.997Z,1.10
2023-01-17T12:17:35.103Z,2.60
2023-01-17T12:20:10.190Z,0.80
2023-01-17T12:22:47.955Z,0.60
2023-01-17T12:25:20.551Z,1.65
2023-01-17T12:28:11.311Z,0.60
2023-01-17T12:30:51.343Z,2.55
2023-01-17T12:33:26.766Z,2.47
2023-01-17T12:35:57.816Z,0.95
2023-01-17T12:38:33.225Z,0.88
2023-01-17T12:41:10.228Z,1.20
2023-01-17T12:43:40.278Z,0.47
2023-01-17T12:46:17.033Z,1.02
2023-01-17T12:48:44.933Z,0.85
2023-01-17T12:51:27.724Z,1.25
2023-01-17T12:54:19.399Z,0.70
2023-01-17T12:57:02.493Z,0.90
2023-01-17T12:59:53.579Z,1.17
2023-01-17T13:02:41.547Z,1.00
2023-01-17T13:05:34.486Z,1.90
2023-01-17T13:08:04.076Z,1.08
2023-01-17T13:10:38.448Z,0.67
2023-01-17T13:13:16.541Z,0.77
2023-01-17T13:15:43.630Z,1.83
2023-01-17T13:18:23.061Z,1.33
2023-01-17T13:20:56.633Z,1.02
2023-01-17T13:23:31.265Z,1.15
2023-01-17T13:26:00.288Z,0.73
2023-01-17T13:29:08.452Z,0.63
2023-01-17T13:31:40.953Z,1.75
2023-01-17T13:34:07.435Z,0.65
2023-01-17T13:36:52.330Z,1.02
2023-01-17T13:39:34.092Z,0.60
2023-01-17T13:42:49.031Z,0.40
2023-01-17T13:45:22.062Z,0.45
2023-01-17T13:47:48.732Z,0.80
2023-01-17T13:50:36.836Z,1.27
2023-01-17T13:53:34.438Z,1.10
2023-01-17T13:56:18.989Z,1.10
2023-01-17T13:59:02.793Z,0.85
2023-01-17T14:01:34.757Z,0.93
2023-01-17T14:04:03.606Z,1.00
2023-01-17T14:06:33.053Z,1.10
2023-01-17T14:09:08.563Z,0.90
2023-01-17T14:11:59.860Z,0.95
2023-01-17T14:14:35.548Z,0.85
2023-01-17T14:17:20.597Z,0.75
2023-01-17T14:19:49.784Z,1.23
2023-01-17T14:22:19.133Z,0.75
2023-01-17T14:25:17.554Z,0.80
2023-01-17T14:27:54.901Z,0.80
2023-01-17T14:30:24.649Z,0.70
2023-01-17T14:33:06.009Z,1.17
2023-01-17T14:35:45.757Z,0.82
2023-01-17T14:38:28.628Z,0.40
2023-01-17T14:41:03.361Z,0.50
2023-01-17T14:43:33.271Z,0.50
2023-01-17T14:46:02.966Z,1.15
2023-01-17T14:48:30.127Z,0.40
2023-01-17T14:51:00.124Z,0.55
2023-01-17T14:53:30.615Z,0.50
2023-01-17T14:58:42.457Z,0.30
2023-01-17T15:01:14.679Z,0.30
2023-01-17T15:03:49.363Z,0.52
2023-01-17T15:06:22.825Z,0.75
2023-01-17T15:08:54.124Z,0.47
2023-01-17T15:11:26.775Z,0.77
2023-01-17T15:13:57.395Z,0.52
2023-01-17T15:16:35.352Z,1.20
2023-01-17T15:19:03.418Z,1.42
2023-01-17T15:21:32.969Z,0.68
2023-01-17T15:24:03.746Z,1.05
2023-01-17T15:26:34.568Z,0.50
2023-01-17T15:29:05.899Z,0.70
2023-01-17T15:31:59.353Z,1.13
2023-01-17T15:34:30.314Z,1.13
2023-01-17T15:37:00.213Z,0.47
2023-01-17T15:39:30.219Z,0.57
2023-01-17T15:42:03.642Z,0.40
2023-01-17T15:44:49.424Z,1.10
2023-01-17T15:47:25.110Z,1.75
2023-01-17T15:49:52.722Z,0.55
2023-01-17T15:52:20.541Z,0.45
2023-01-17T15:54:52.794Z,1.27
2023-01-17T15:57:22.513Z,0.40
2023-01-17T16:00:09.628Z,3.58
2023-01-17T16:02:43.778Z,0.45
2023-01-17T16:05:22.774Z,0.98
2023-01-17T16:07:53.148Z,0.47
2023-01-17T16:10:22.372Z,1.65
2023-01-17T16:12:51.780Z,0.93
2023-01-17T16:15:20.443Z,0.60
2023-01-17T16:17:50.041Z,1.25
2023-01-17T16:20:20.203Z,1.05
2023-01-17T16:22:47.493Z,1.23
2023-01-17T16:25:16.906Z,0.73
2023-01-17T16:27:44.072Z,1.65
2023-01-17T16:30:15.187Z,0.40
2023-01-17T16:32:43.082Z,0.80
2023-01-17T16:35:19.286Z,1.45
2023-01-17T16:37:54.988Z,0.50
2023-01-17T16:40:23.971Z,2.05
2023-01-17T16:42:51.048Z,2.15
2023-01-17T16:45:18.584Z,1.42
2023-01-17T16:47:45.985Z,2.22
2023-01-17T16:50:15.347Z,1.13
2023-01-17T16:52:42.515Z,0.57
2023-01-17T16:55:13.842Z,1.98
2023-01-17T16:57:41.864Z,1.10
2023-01-17T17:00:10.698Z,1.60
2023-01-17T17:02:39.019Z,2.15
2023-01-17T17:05:07.412Z,1.80
2023-01-17T17:07:36.727Z,0.95
2023-01-17T17:10:03.759Z,1.15
2023-01-17T17:12:30.317Z,2.22
2023-01-17T17:14:56.857Z,1.85
2023-01-17T17:17:23.939Z,1.20
2023-01-17T17:19:50.440Z,1.42
2023-01-17T17:22:17.016Z,1.05
2023-01-17T17:24:43.583Z,1.63
2023-01-17T17:27:10.192Z,1.45
2023-01-17T17:29:37.042Z,0.95
2023-01-17T17:32:03.691Z,0.98
2023-01-17T17:34:34.193Z,1.63
2023-01-17T17:39:30.308Z,2.10
2023-01-17T17:41:57.253Z,1.30
2023-01-17T17:44:23.781Z,1.25
2023-01-17T17:46:51.394Z,1.25
2023-01-17T17:49:18.321Z,1.15
2023-01-17T17:51:44.895Z,1.35
2023-01-17T17:54:13.172Z,1.23
2023-01-17T17:56:40.457Z,1.08
2023-01-17T17:59:09.000Z,2.50
2023-01-17T18:01:38.274Z,1.60
2023-01-17T18:04:07.413Z,1.50
2023-01-17T18:06:34.949Z,1.40
2023-01-17T18:09:02.195Z,1.52
2023-01-17T18:11:29.224Z,1.50
2023-01-17T18:13:58.839Z,1.38
2023-01-17T18:16:26.899Z,1.50
2023-01-17T18:18:56.105Z,2.53
2023-01-17T18:21:28.913Z,1.52
2023-01-17T18:24:00.290Z,1.83
2023-01-17T18:26:28.200Z,1.80
2023-01-17T18:28:56.431Z,1.73
2023-01-17T18:31:29.850Z,1.85
2023-01-17T18:33:59.329Z,1.83
2023-01-17T18:36:28.733Z,1.70
2023-01-17T18:38:55.242Z,2.95
2023-01-17T18:41:24.529Z,1.92
2023-01-17T18:43:51.632Z,1.67
2023-01-17T18:46:19.919Z,2.03
2023-01-17T18:48:47.190Z,1.70
2023-01-17T18:51:16.149Z,1.90
2023-01-17T18:53:45.057Z,1.75
2023-01-17T18:56:13.946Z,2.13
2023-01-17T18:58:45.256Z,2.03
2023-01-17T19:01:13.385Z,2.22
2023-01-17T19:03:42.103Z,1.95
2023-01-17T19:06:14.563Z,2.03
2023-01-17T19:08:42.063Z,2.13
2023-01-17T19:11:09.308Z,2.17
2023-01-17T19:13:37.337Z,1.75
2023-01-17T19:16:06.956Z,2.10
2023-01-17T19:18:34.297Z,2.77
2023-01-17T19:21:16.366Z,1.90
2023-01-17T19:23:43.565Z,2.00
2023-01-17T19:26:11.535Z,1.77
2023-01-17T19:28:42.802Z,3.00
2023-01-17T19:31:13.004Z,1.83
2023-01-17T19:33:42.188Z,2.15
2023-01-17T19:36:11.849Z,2.03
2023-01-17T19:38:38.603Z,2.20
2023-01-17T19:41:09.034Z,1.90
2023-01-17T19:43:35.977Z,1.98
2023-01-17T19:46:02.627Z,1.90
2023-01-17T19:48:29.429Z,1.70
2023-01-17T19:50:56.160Z,1.90
2023-01-17T19:53:24.116Z,2.47
2023-01-17T19:55:50.639Z,1.90
2023-01-17T19:58:17.247Z,2.10
2023-01-17T20:00:46.764Z,1.83
2023-01-17T20:03:13.535Z,1.90
2023-01-17T20:05:40.219Z,1.95
2023-01-17T20:08:06.806Z,1.88
2023-01-17T20:10:33.327Z,2.20
2023-01-17T20:12:59.906Z,2.22
2023-01-17T20:15:26.544Z,2.05
2023-01-17T20:17:53.346Z,2.50
2023-01-17T20:20:20.058Z,1.70
2023-01-17T20:22:46.657Z,1.60
2023-01-17T20:25:13.152Z,1.83
2023-01-17T20:27:44.418Z,1.60
2023-01-17T20:30:20.053Z,1.70
2023-01-17T20:32:47.132Z,1.55
2023-01-17T20:35:13.709Z,1.70
2023-01-17T20:37:40.183Z,1.58
2023-01-17T20:40:07.257Z,1.83
2023-01-17T20:42:36.592Z,1.63
2023-01-17T20:45:04.241Z,1.50
2023-01-17T20:47:30.920Z,2.08
2023-01-17T20:49:57.565Z,1.70
2023-01-17T20:52:24.143Z,1.63
2023-01-17T20:54:51.753Z,1.63
2023-01-17T20:57:18.289Z,2.38
2023-01-17T20:59:45.722Z,1.50
2023-01-17T21:02:12.601Z,1.70
2023-01-17T21:04:39.209Z,1.60
2023-01-17T21:07:05.698Z,2.78
2023-01-17T21:09:32.177Z,1.83
2023-01-17T21:12:01.230Z,2.13
2023-01-17T21:14:29.162Z,2.97
2023-01-17T21:16:56.011Z,2.22
2023-01-17T21:19:24.665Z,1.75
2023-01-17T21:21:51.491Z,3.40
2023-01-17T21:24:19.542Z,1.85
2023-01-17T21:26:46.801Z,2.78
2023-01-17T21:29:16.046Z,4.68
2023-01-17T21:31:42.919Z,1.40
2023-01-17T21:34:11.558Z,1.35
2023-01-17T21:36:39.999Z,1.58
2023-01-17T21:39:11.749Z,1.60
2023-01-17T21:41:40.591Z,3.05
2023-01-17T21:44:12.800Z,1.55
2023-01-17T21:46:40.939Z,1.50
2023-01-17T21:49:10.676Z,2.15
2023-01-17T21:51:53.910Z,1.50
2023-01-17T21:54:46.122Z,2.03
2023-01-17T21:57:39.623Z,1.80
2023-01-17T22:00:12.210Z,1.70
2023-01-17T22:02:39.913Z,2.20
2023-01-17T22:05:08.448Z,1.70
2023-01-17T22:07:35.494Z,2.47
2023-01-17T22:10:02.076Z,1.50
2023-01-17T22:12:28.698Z,1.70
2023-01-17T22:14:55.308Z,2.17
2023-01-17T22:17:22.434Z,1.70
2023-01-17T22:19:49.056Z,1.67
2023-01-17T22:22:15.663Z,1.92
2023-01-17T22:24:42.174Z,1.63
2023-01-17T22:27:09.901Z,2.08
2023-01-17T22:29:37.602Z,1.88
2023-01-17T22:32:04.643Z,2.45
2023-01-17T22:34:31.186Z,1.80
2023-01-17T22:36:57.736Z,2.08
2023-01-17T22:39:24.294Z,2.35
2023-01-17T22:41:50.821Z,2.20
2023-01-17T22:44:17.993Z,2.38
2023-01-17T22:46:44.600Z,2.17
2023-01-17T22:49:13.275Z,2.38
2023-01-17T22:51:39.767Z,2.00
2023-01-17T22:54:06.316Z,2.55
2023-01-17T22:56:33.527Z,2.20
2023-01-17T22:59:01.174Z,2.15
2023-01-17T23:01:32.785Z,2.00
2023-01-17T23:04:02.923Z,1.85
2023-01-17T23:06:34.911Z,2.28
2023-01-17T23:09:05.489Z,2.13
2023-01-17T23:14:11.566Z,2.00
2023-01-17T23:16:59.309Z,2.03
2023-01-17T23:19:29.291Z,2.10
2023-01-17T23:22:17.940Z,2.45
2023-01-17T23:24:50.745Z,2.17
2023-01-17T23:28:14.353Z,2.22
2023-01-17T23:30:41.454Z,2.15
2023-01-17T23:33:11.194Z,1.95
2023-01-17T23:35:42.133Z,2.10
2023-01-17T23:38:25.938Z,2.50
2023-01-17T23:41:12.569Z,2.38
2023-01-17T23:43:39.095Z,2.20
2023-01-17T23:46:05.775Z,2.60
2023-01-17T23:48:32.383Z,2.60
2023-01-17T23:51:02.293Z,2.58
2023-01-17T23:53:29.026Z,2.40
2023-01-17T23:55:56.945Z,2.55
2023-01-17T23:58:25.512Z,2.42
